createdAt,value
2019-06-01T00:00:55.884Z,5.13
2019-06-01T00:03:29.888Z,3.90
2019-06-01T00:06:03.565Z,4.00
2019-06-01T00:08:39.769Z,4.77
2019-06-01T00:11:13.371Z,3.83
2019-06-01T00:13:47.685Z,5.07
2019-06-01T00:16:20.734Z,3.60
2019-06-01T00:18:53.825Z,2.87
2019-06-01T00:21:26.739Z,3.50
2019-06-01T00:24:01.289Z,3.70
2019-06-01T00:26:35.216Z,6.20
2019-06-01T00:29:08.665Z,3.87
2019-06-01T00:31:43.076Z,5.07
2019-06-01T00:34:16.589Z,10.37
2019-06-01T00:36:51.929Z,10.70
2019-06-01T00:39:27.043Z,5.30
2019-06-01T00:42:00.570Z,4.30
2019-06-01T00:44:33.781Z,4.17
2019-06-01T00:47:07.131Z,4.20
2019-06-01T00:49:40.907Z,4.53
2019-06-01T00:52:14.201Z,4.10
2019-06-01T00:54:51.714Z,5.03
2019-06-01T00:57:25.864Z,3.87
2019-06-01T00:59:59.104Z,4.33
2019-06-01T01:02:32.765Z,4.00
2019-06-01T01:05:17.136Z,3.90
2019-06-01T01:07:51.605Z,4.10
2019-06-01T01:10:25.585Z,5.30
2019-06-01T01:13:26.100Z,4.20
2019-06-01T01:15:59.808Z,4.47
2019-06-01T01:18:33.690Z,4.47
2019-06-01T01:21:07.145Z,4.90
2019-06-01T01:23:40.208Z,4.13
2019-06-01T01:26:12.409Z,4.67
2019-06-01T01:28:46.685Z,3.73
2019-06-01T01:31:20.364Z,4.30
2019-06-01T01:33:53.993Z,3.87
2019-06-01T01:36:27.571Z,4.03
2019-06-01T01:39:01.147Z,4.00
2019-06-01T01:41:36.214Z,5.00
2019-06-01T01:44:09.892Z,3.87
2019-06-01T01:46:43.780Z,4.70
2019-06-01T01:49:19.316Z,3.73
2019-06-01T01:51:55.449Z,4.20
2019-06-01T01:54:29.816Z,3.80
2019-06-01T01:57:03.337Z,4.70
2019-06-01T01:59:37.319Z,4.40
2019-06-01T02:02:11.289Z,3.63
2019-06-01T02:04:44.677Z,4.50
2019-06-01T02:07:18.143Z,3.50
2019-06-01T02:09:53.028Z,3.80
2019-06-01T02:12:26.929Z,2.80
2019-06-01T02:14:59.780Z,3.47
2019-06-01T02:17:33.374Z,3.70
2019-06-01T02:20:07.885Z,3.57
2019-06-01T02:22:41.413Z,3.63
2019-06-01T02:25:15.301Z,6.00
2019-06-01T02:27:53.153Z,3.77
2019-06-01T02:30:26.671Z,4.23
2019-06-01T02:33:02.217Z,5.07
2019-06-01T02:35:35.291Z,4.67
2019-06-01T02:38:08.318Z,3.87
2019-06-01T02:40:44.041Z,4.17
2019-06-01T02:43:18.152Z,3.93
2019-06-01T02:45:52.356Z,3.63
2019-06-01T02:48:25.992Z,4.43
2019-06-01T02:50:59.944Z,4.03
2019-06-01T02:53:34.548Z,4.40
2019-06-01T02:56:08.177Z,3.60
2019-06-01T02:58:40.951Z,4.03
2019-06-01T03:01:34.792Z,4.40
2019-06-01T03:04:10.049Z,5.13
2019-06-01T03:06:45.569Z,6.40
2019-06-01T03:09:21.315Z,5.40
2019-06-01T03:11:59.350Z,5.60
2019-06-01T03:14:35.122Z,5.93
2019-06-01T03:17:12.219Z,9.00
2019-06-01T03:19:49.517Z,4.77
2019-06-01T03:22:24.327Z,4.67
2019-06-01T03:24:59.800Z,5.43
2019-06-01T03:27:38.709Z,4.87
2019-06-01T03:30:15.670Z,4.30
2019-06-01T03:32:49.899Z,4.13
2019-06-01T03:35:22.831Z,5.20
2019-06-01T03:37:56.155Z,5.90
2019-06-01T03:40:28.945Z,5.60
2019-06-01T03:43:02.374Z,6.83
2019-06-01T03:45:36.186Z,5.10
2019-06-01T03:48:09.829Z,4.80
2019-06-01T03:50:43.283Z,4.70
2019-06-01T03:53:18.077Z,5.27
2019-06-01T03:55:52.018Z,7.83
2019-06-01T03:58:25.518Z,5.10
2019-06-01T04:00:59.015Z,5.30
2019-06-01T04:03:31.786Z,4.80
2019-06-01T04:06:05.323Z,4.70
2019-06-01T04:08:38.887Z,5.83
2019-06-01T04:11:13.455Z,6.60
2019-06-01T04:13:47.117Z,6.73
2019-06-01T04:16:23.964Z,5.10
2019-06-01T04:18:58.304Z,7.43
2019-06-01T04:21:32.207Z,5.93
2019-06-01T04:24:06.013Z,5.40
2019-06-01T04:26:39.412Z,6.53
2019-06-01T04:29:13.105Z,5.07
2019-06-01T04:31:45.835Z,5.30
2019-06-01T04:34:18.719Z,5.27
2019-06-01T04:36:51.569Z,5.47
2019-06-01T04:39:24.824Z,5.20
2019-06-01T04:42:01.166Z,5.17
2019-06-01T04:44:34.787Z,6.27
2019-06-01T04:47:09.241Z,6.67
2019-06-01T04:49:43.527Z,11.93
2019-06-01T04:52:16.998Z,6.07
2019-06-01T04:54:50.925Z,6.30
2019-06-01T04:57:24.349Z,8.60
2019-06-01T04:59:57.173Z,4.93
2019-06-01T05:02:31.331Z,5.20
2019-06-01T05:05:05.057Z,3.83
2019-06-01T05:07:38.745Z,6.17
2019-06-01T05:10:14.332Z,5.83
2019-06-01T05:12:47.889Z,6.60
2019-06-01T05:15:21.661Z,5.53
2019-06-01T05:17:56.275Z,6.13
2019-06-01T05:20:29.579Z,6.73
2019-06-01T05:23:02.989Z,6.10
2019-06-01T05:25:36.744Z,8.47
2019-06-01T05:28:11.195Z,7.10
2019-06-01T05:30:45.073Z,6.77
2019-06-01T05:33:33.265Z,7.67
2019-06-01T05:35:54.321Z,5.97
2019-06-01T05:38:28.477Z,6.60
2019-06-01T05:41:01.645Z,18.77
2019-06-01T05:43:35.062Z,8.07
2019-06-01T05:46:08.063Z,9.47
2019-06-01T05:48:41.375Z,7.77
2019-06-01T05:51:16.890Z,5.87
2019-06-01T05:53:50.378Z,6.80
2019-06-01T05:56:24.333Z,6.83
2019-06-01T05:58:59.115Z,6.03
2019-06-01T06:01:33.237Z,6.13
2019-06-01T06:04:07.383Z,6.90
2019-06-01T06:06:41.011Z,7.23
2019-06-01T06:09:14.817Z,9.73
2019-06-01T06:11:48.294Z,9.63
2019-06-01T06:14:23.022Z,9.07
2019-06-01T06:16:57.566Z,7.80
2019-06-01T06:19:31.371Z,10.30
2019-06-01T06:22:05.677Z,8.37
2019-06-01T06:24:39.619Z,6.40
2019-06-01T06:27:14.394Z,8.13
2019-06-01T06:29:48.856Z,5.50
2019-06-01T06:32:24.519Z,5.07
2019-06-01T06:34:59.221Z,5.27
2019-06-01T06:37:32.407Z,7.50
2019-06-01T06:40:06.804Z,6.70
2019-06-01T06:42:41.770Z,5.50
2019-06-01T06:45:16.545Z,5.23
2019-06-01T06:47:52.442Z,6.70
2019-06-01T06:50:25.841Z,4.60
2019-06-01T06:53:29.661Z,5.03
2019-06-01T06:56:00.833Z,5.57
2019-06-01T06:58:36.665Z,5.87
2019-06-01T07:01:16.762Z,5.80
2019-06-01T07:04:12.202Z,6.40
2019-06-01T07:06:41.939Z,6.07
2019-06-01T07:09:16.097Z,5.50
2019-06-01T07:11:51.677Z,6.90
2019-06-01T07:14:25.469Z,6.33
2019-06-01T07:17:07.094Z,5.73
2019-06-01T07:19:41.381Z,8.43
2019-06-01T07:22:17.171Z,8.23
2019-06-01T07:24:52.734Z,5.57
2019-06-01T07:27:30.698Z,6.50
2019-06-01T07:30:05.039Z,6.90
2019-06-01T07:32:42.498Z,6.23
2019-06-01T07:35:16.681Z,6.63
2019-06-01T07:41:48.777Z,6.27
2019-06-01T07:44:34.199Z,5.03
2019-06-01T07:47:16.483Z,6.53
2019-06-01T07:53:49.520Z,5.87
2019-06-01T07:56:24.341Z,5.33
2019-06-01T07:58:58.498Z,7.17
2019-06-01T08:01:34.123Z,8.67
2019-06-01T08:04:15.692Z,6.10
2019-06-01T08:06:49.460Z,5.90
2019-06-01T08:09:24.529Z,8.57
2019-06-01T08:12:01.523Z,6.60
2019-06-01T08:14:35.573Z,5.67
2019-06-01T08:17:09.462Z,7.03
2019-06-01T08:19:46.114Z,11.67
2019-06-01T08:22:30.050Z,7.17
2019-06-01T08:25:26.543Z,5.70
2019-06-01T08:28:00.825Z,5.50
2019-06-01T08:31:12.338Z,9.30
2019-06-01T08:33:46.721Z,6.03
2019-06-01T08:36:21.103Z,7.77
2019-06-01T08:38:54.423Z,9.23
2019-06-01T08:45:16.187Z,5.43
2019-06-01T08:47:49.857Z,5.43
2019-06-01T08:50:37.740Z,5.43
2019-06-01T08:53:16.689Z,6.33
2019-06-01T08:55:49.216Z,7.27
2019-06-01T08:58:49.588Z,6.93
2019-06-01T09:01:50.566Z,7.47
2019-06-01T09:04:28.824Z,8.40
2019-06-01T09:07:02.729Z,8.13
2019-06-01T09:10:16.049Z,6.40
2019-06-01T09:13:14.810Z,7.10
2019-06-01T09:16:50.310Z,6.83
2019-06-01T09:26:57.586Z,15.53
2019-06-01T09:29:32.124Z,10.70
2019-06-01T09:32:10.456Z,6.23
2019-06-01T09:34:50.568Z,6.63
2019-06-01T09:38:20.604Z,9.97
2019-06-01T09:40:55.007Z,12.53
2019-06-01T09:43:37.191Z,9.47
2019-06-01T09:53:47.976Z,7.80
2019-06-01T09:57:32.147Z,8.40
2019-06-01T10:07:47.161Z,7.23
2019-06-01T10:10:21.165Z,8.00
2019-06-01T10:13:07.978Z,10.60
2019-06-01T10:15:50.275Z,9.00
2019-06-01T10:18:26.908Z,7.33
2019-06-01T10:21:07.834Z,6.90
2019-06-01T10:23:42.762Z,7.43
2019-06-01T10:26:23.127Z,7.37
2019-06-01T10:28:59.677Z,6.33
2019-06-01T10:31:39.664Z,7.73
2019-06-01T10:34:10.552Z,6.57
2019-06-01T10:37:35.585Z,7.23
2019-06-01T10:40:11.056Z,7.07
2019-06-01T10:42:45.236Z,6.63
2019-06-01T10:45:19.985Z,7.63
2019-06-01T10:48:07.161Z,7.47
2019-06-01T10:50:49.037Z,7.53
2019-06-01T10:53:38.199Z,7.07
2019-06-01T10:56:13.110Z,7.80
2019-06-01T10:59:00.480Z,6.83
2019-06-01T11:01:34.661Z,7.97
2019-06-01T11:04:09.089Z,7.40
2019-06-01T11:06:48.819Z,8.00
2019-06-01T11:09:30.298Z,8.57
2019-06-01T11:12:21.313Z,7.80
2019-06-01T11:14:57.072Z,7.80
2019-06-01T11:17:45.641Z,8.57
2019-06-01T11:20:19.639Z,8.43
2019-06-01T11:22:52.859Z,8.90
2019-06-01T11:25:39.650Z,9.07
2019-06-01T11:28:25.653Z,9.60
2019-06-01T11:31:10.355Z,10.43
2019-06-01T11:33:51.274Z,9.63
2019-06-01T11:36:27.596Z,7.73
2019-06-01T11:39:01.944Z,6.80
2019-06-01T11:42:19.750Z,7.87
2019-06-01T11:44:54.439Z,8.40
2019-06-01T11:47:46.639Z,8.53
2019-06-01T11:50:29.206Z,8.50
2019-06-01T11:53:04.507Z,8.80
2019-06-01T11:56:02.208Z,8.77
2019-06-01T11:58:41.395Z,10.47
2019-06-01T12:05:11.711Z,9.40
2019-06-01T12:07:46.065Z,10.07
2019-06-01T12:10:38.982Z,9.63
2019-06-01T12:13:17.723Z,10.47
2019-06-01T12:15:54.512Z,9.60
2019-06-01T12:18:30.046Z,9.93
2019-06-01T12:21:10.826Z,9.27
2019-06-01T12:23:54.011Z,9.47
2019-06-01T12:26:28.577Z,10.20
2019-06-01T12:29:00.840Z,8.80
2019-06-01T12:31:37.670Z,9.17
2019-06-01T12:34:17.458Z,10.17
2019-06-01T12:36:49.634Z,8.77
2019-06-01T12:39:35.664Z,8.70
2019-06-01T12:42:12.536Z,9.33
2019-06-01T12:44:47.847Z,11.20
2019-06-01T12:47:33.834Z,10.03
2019-06-01T12:50:08.225Z,7.93
2019-06-01T12:52:44.431Z,8.57
2019-06-01T12:55:17.932Z,8.63
2019-06-01T12:57:52.704Z,8.43
2019-06-01T13:00:28.489Z,7.80
2019-06-01T13:03:41.171Z,7.77
2019-06-01T13:06:15.623Z,7.63
2019-06-01T13:08:49.663Z,8.73
2019-06-01T13:11:24.108Z,8.13
2019-06-01T13:13:58.023Z,8.00
2019-06-01T13:16:39.316Z,7.53
2019-06-01T13:19:20.523Z,8.57
2019-06-01T13:21:55.273Z,7.70
2019-06-01T13:24:29.510Z,8.93
2019-06-01T13:27:03.524Z,9.03
2019-06-01T13:29:36.697Z,8.17
2019-06-01T13:32:13.124Z,8.37
2019-06-01T13:34:53.628Z,7.67
2019-06-01T13:37:27.007Z,7.90
2019-06-01T13:40:00.573Z,8.70
2019-06-01T13:42:42.960Z,7.67
2019-06-01T13:45:16.426Z,8.27
2019-06-01T13:47:54.150Z,8.20
2019-06-01T13:50:28.097Z,8.90
2019-06-01T13:53:05.052Z,9.10
2019-06-01T13:55:40.001Z,8.33
2019-06-01T13:58:19.859Z,8.13
2019-06-01T14:01:00.289Z,7.83
2019-06-01T14:03:33.787Z,8.00
2019-06-01T14:06:09.785Z,8.53
2019-06-01T14:08:49.063Z,9.73
2019-06-01T14:11:23.494Z,8.50
2019-06-01T14:13:56.640Z,8.70
2019-06-01T14:16:30.624Z,8.43
2019-06-01T14:19:12.439Z,8.27
2019-06-01T14:21:47.749Z,9.03
2019-06-01T14:24:25.418Z,8.20
2019-06-01T14:27:01.687Z,7.90
2019-06-01T14:29:43.416Z,7.40
2019-06-01T14:32:16.288Z,8.43
2019-06-01T14:34:51.258Z,7.33
2019-06-01T14:37:27.651Z,7.70
2019-06-01T14:40:02.195Z,7.70
2019-06-01T14:42:37.027Z,9.17
2019-06-01T14:45:16.386Z,9.60
2019-06-01T14:47:51.364Z,8.80
2019-06-01T14:50:32.324Z,9.77
2019-06-01T14:53:06.285Z,8.40
2019-06-01T14:55:40.051Z,9.17
2019-06-01T14:58:13.491Z,8.83
2019-06-01T15:00:48.351Z,9.27
2019-06-01T15:03:48.115Z,8.90
2019-06-01T15:06:21.487Z,9.47
2019-06-01T15:09:10.915Z,13.30
2019-06-01T15:11:38.526Z,8.23
2019-06-01T15:14:19.823Z,8.17
2019-06-01T15:16:56.120Z,11.50
2019-06-01T15:19:36.666Z,8.70
2019-06-01T15:22:12.230Z,9.70
2019-06-01T15:24:56.456Z,8.13
2019-06-01T15:27:29.774Z,7.73
2019-06-01T15:30:07.902Z,8.33
2019-06-01T15:32:48.304Z,9.30
2019-06-01T15:35:25.917Z,7.27
2019-06-01T15:38:13.160Z,7.87
2019-06-01T15:40:47.646Z,7.60
2019-06-01T15:43:22.238Z,8.60
2019-06-01T15:46:04.022Z,8.70
2019-06-01T15:48:41.784Z,7.13
2019-06-01T15:51:20.633Z,8.23
2019-06-01T15:53:54.853Z,7.93
2019-06-01T15:56:33.922Z,7.53
2019-06-01T15:59:09.325Z,7.70
2019-06-01T16:01:47.737Z,7.43
2019-06-01T16:04:41.258Z,6.80
2019-06-01T16:07:15.441Z,6.90
2019-06-01T16:09:48.572Z,8.63
2019-06-01T16:12:22.844Z,7.43
2019-06-01T16:14:57.605Z,8.77
2019-06-01T16:17:32.540Z,6.50
2019-06-01T16:20:10.653Z,7.03
2019-06-01T16:22:50.475Z,8.00
2019-06-01T16:25:35.036Z,8.30
2019-06-01T16:28:09.457Z,6.83
2019-06-01T16:30:43.343Z,9.23
2019-06-01T16:33:18.581Z,8.13
2019-06-01T16:35:58.858Z,7.60
2019-06-01T16:38:33.334Z,7.20
2019-06-01T16:41:07.974Z,8.73
2019-06-01T16:43:41.828Z,7.10
2019-06-01T16:46:16.545Z,7.97
2019-06-01T16:48:55.349Z,9.03
2019-06-01T16:51:30.546Z,9.80
2019-06-01T16:54:04.249Z,9.00
2019-06-01T16:56:37.887Z,9.20
2019-06-01T16:59:11.748Z,7.77
2019-06-01T17:01:45.034Z,8.00
2019-06-01T17:04:19.749Z,8.97
2019-06-01T17:06:53.617Z,8.63
2019-06-01T17:09:27.698Z,8.40
2019-06-01T17:12:03.470Z,10.00
2019-06-01T17:14:37.294Z,8.13
2019-06-01T17:17:31.325Z,11.43
2019-06-01T17:20:05.664Z,8.57
2019-06-01T17:22:39.565Z,6.20
2019-06-01T17:25:14.373Z,7.10
2019-06-01T17:27:51.335Z,9.23
2019-06-01T17:30:31.383Z,7.17
2019-06-01T17:33:14.875Z,6.10
2019-06-01T17:35:48.566Z,8.27
2019-06-01T17:38:22.985Z,7.23
2019-06-01T17:40:58.023Z,8.00
2019-06-01T17:43:39.413Z,6.80
2019-06-01T17:46:14.879Z,5.47
2019-06-01T17:48:48.584Z,6.40
2019-06-01T17:51:23.190Z,7.30
2019-06-01T17:53:57.656Z,8.13
2019-06-01T17:56:32.913Z,6.83
2019-06-01T17:59:07.549Z,6.73
2019-06-01T18:01:42.555Z,6.33
2019-06-01T18:04:16.643Z,7.10
2019-06-01T18:06:51.033Z,6.40
2019-06-01T18:09:26.079Z,6.87
2019-06-01T18:11:59.875Z,6.30
2019-06-01T18:14:33.791Z,7.23
2019-06-01T18:17:08.171Z,4.83
2019-06-01T18:19:45.164Z,5.53
2019-06-01T18:22:19.983Z,5.40
2019-06-01T18:24:53.530Z,5.60
2019-06-01T18:27:28.334Z,6.30
2019-06-01T18:30:02.802Z,7.87
2019-06-01T18:32:36.938Z,5.63
2019-06-01T18:35:09.471Z,5.50
2019-06-01T18:37:49.560Z,7.73
2019-06-01T18:40:25.611Z,5.50
2019-06-01T18:43:18.402Z,5.57
2019-06-01T18:45:59.279Z,6.33
2019-06-01T18:48:33.813Z,6.17
2019-06-01T18:51:08.201Z,6.53
2019-06-01T18:53:42.148Z,5.83
2019-06-01T18:56:18.333Z,5.93
2019-06-01T18:58:55.917Z,15.57
2019-06-01T19:01:29.891Z,6.53
2019-06-01T19:04:03.561Z,5.47
2019-06-01T19:06:38.284Z,5.83
2019-06-01T19:09:15.763Z,5.40
2019-06-01T19:11:49.534Z,6.50
2019-06-01T19:14:23.124Z,8.60
2019-06-01T19:16:55.271Z,5.27
2019-06-01T19:19:28.749Z,7.60
2019-06-01T19:22:04.245Z,5.30
2019-06-01T19:24:37.676Z,6.33
2019-06-01T19:27:11.125Z,5.47
2019-06-01T19:29:44.865Z,6.23
2019-06-01T19:32:21.209Z,7.07
2019-06-01T19:34:55.319Z,7.47
2019-06-01T19:37:29.077Z,5.80
2019-06-01T19:40:04.159Z,6.00
2019-06-01T19:42:38.189Z,5.17
2019-06-01T19:45:27.103Z,6.27
2019-06-01T19:47:49.689Z,8.00
2019-06-01T19:50:23.727Z,8.57
2019-06-01T19:52:57.836Z,7.20
2019-06-01T19:55:31.864Z,7.67
2019-06-01T19:58:06.075Z,7.27
2019-06-01T20:00:39.829Z,5.27
2019-06-01T20:03:20.205Z,5.63
2019-06-01T20:05:52.548Z,5.53
2019-06-01T20:08:26.902Z,7.50
2019-06-01T20:11:01.555Z,5.77
2019-06-01T20:13:35.295Z,5.17
2019-06-01T20:16:10.556Z,5.07
2019-06-01T20:18:44.824Z,5.80
2019-06-01T20:21:18.798Z,4.40
2019-06-01T20:23:53.551Z,5.50
2019-06-01T20:26:39.669Z,5.57
2019-06-01T20:29:04.742Z,6.37
2019-06-01T20:31:38.720Z,5.30
2019-06-01T20:34:12.789Z,6.60
2019-06-01T20:36:53.087Z,6.50
2019-06-01T20:39:27.056Z,9.10
2019-06-01T20:42:17.269Z,15.00
2019-06-01T20:44:36.301Z,7.93
2019-06-01T20:47:10.229Z,5.67
2019-06-01T20:49:44.023Z,4.93
2019-06-01T20:52:19.017Z,5.83
2019-06-01T20:54:53.810Z,5.33
2019-06-01T20:57:27.432Z,5.73
2019-06-01T21:00:01.512Z,5.60
2019-06-01T21:02:35.766Z,6.00
2019-06-01T21:05:10.357Z,7.07
2019-06-01T21:07:44.629Z,7.17
2019-06-01T21:10:20.305Z,6.83
2019-06-01T21:12:55.380Z,7.63
2019-06-01T21:15:34.296Z,6.47
2019-06-01T21:18:09.231Z,8.93
2019-06-01T21:20:42.942Z,6.73
2019-06-01T21:23:16.618Z,7.33
2019-06-01T21:25:50.951Z,6.40
2019-06-01T21:28:25.780Z,8.90
2019-06-01T21:31:04.830Z,7.97
2019-06-01T21:33:39.048Z,8.53
2019-06-01T21:36:15.273Z,7.00
2019-06-01T21:38:49.683Z,9.00
2019-06-01T21:41:26.103Z,6.27
2019-06-01T21:44:02.051Z,6.13
2019-06-01T21:46:35.824Z,5.30
2019-06-01T21:49:09.295Z,6.90
2019-06-01T21:51:42.373Z,5.80
2019-06-01T21:54:20.055Z,4.90
2019-06-01T21:56:53.809Z,5.87
2019-06-01T21:59:27.601Z,6.20
2019-06-01T22:02:02.447Z,5.77
2019-06-01T22:04:36.439Z,6.97
2019-06-01T22:07:10.415Z,4.57
2019-06-01T22:09:43.552Z,5.10
2019-06-01T22:12:19.125Z,4.93
2019-06-01T22:14:53.610Z,4.77
2019-06-01T22:17:27.925Z,4.70
2019-06-01T22:20:01.695Z,4.83
2019-06-01T22:22:35.199Z,5.27
2019-06-01T22:25:09.059Z,5.37
2019-06-01T22:27:45.749Z,5.87
2019-06-01T22:30:20.304Z,6.40
2019-06-01T22:32:54.462Z,5.40
2019-06-01T22:35:28.809Z,7.60
2019-06-01T22:38:03.023Z,5.23
2019-06-01T22:40:36.623Z,6.13
2019-06-01T22:43:11.431Z,4.70
2019-06-01T22:45:45.275Z,5.00
2019-06-01T22:48:20.440Z,6.17
2019-06-01T22:50:54.817Z,6.77
2019-06-01T22:53:28.345Z,5.20
2019-06-01T22:56:01.870Z,6.20
2019-06-01T22:58:38.846Z,4.60
2019-06-01T23:01:12.784Z,5.20
2019-06-01T23:03:46.735Z,5.17
2019-06-01T23:06:20.955Z,5.17
2019-06-01T23:08:54.803Z,4.90
2019-06-01T23:11:29.602Z,4.57
2019-06-01T23:14:04.075Z,4.87
2019-06-01T23:16:37.819Z,4.97
2019-06-01T23:19:10.902Z,4.97
2019-06-01T23:21:47.222Z,5.23
2019-06-01T23:24:21.644Z,5.33
2019-06-01T23:26:56.670Z,4.33
2019-06-01T23:29:32.859Z,3.90
2019-06-01T23:32:06.625Z,5.40
2019-06-01T23:34:39.961Z,4.60
2019-06-01T23:37:13.343Z,4.10
2019-06-01T23:39:46.463Z,4.00
2019-06-01T23:42:19.747Z,5.93
2019-06-01T23:44:53.506Z,4.03
2019-06-01T23:47:27.461Z,4.57
2019-06-01T23:50:00.693Z,5.73
2019-06-01T23:52:34.817Z,4.70
2019-06-01T23:55:10.357Z,4.57
2019-06-01T23:57:45.300Z,4.67
